Time;durP1;ratioP1;P1;durP2;ratioP2;P2;SDS_P1;SDS_P2;PMS_P1;PMS_P2;Temp;Humidity;BMP_temperature;BMP_pressure;BME280_temperature;BME280_humidity;BME280_pressure;Samples;Min_cycle;Max_cycle;Signal;HPM_P1;HPM_P2
2022/06/13 00:01:21;;;;;;;2.53;2.35;;;19.80;99.90;;;;;;5052092;28;20240;-91
2022/06/13 00:03:51;;;;;;;2.08;1.88;;;19.70;99.90;;;;;;5052526;28;20224;-92
2022/06/13 00:06:20;;;;;;;2.35;2.15;;;19.60;99.90;;;;;;5052696;28;20326;-92
2022/06/13 00:08:49;;;;;;;1.83;1.73;;;19.60;99.90;;;;;;5052212;28;20229;-93
2022/06/13 00:11:20;;;;;;;3.25;1.80;;;19.50;99.90;;;;;;5052010;28;20210;-92
2022/06/13 00:13:52;;;;;;;2.58;1.90;;;19.50;99.90;;;;;;5052359;28;20297;-91
2022/06/13 00:16:21;;;;;;;2.67;2.50;;;19.50;99.90;;;;;;5051966;28;20232;-91
2022/06/13 00:18:51;;;;;;;2.55;2.35;;;19.50;99.90;;;;;;5052391;28;20217;-92
2022/06/13 00:21:21;;;;;;;2.88;2.67;;;19.50;99.90;;;;;;5052138;28;20230;-91
2022/06/13 00:23:50;;;;;;;2.00;1.90;;;19.50;99.90;;;;;;5052256;28;20210;-92
2022/06/13 00:26:21;;;;;;;4.32;2.72;;;19.50;99.90;;;;;;5052064;28;20221;-92
2022/06/13 00:28:49;;;;;;;2.55;2.33;;;19.40;99.90;;;;;;5052204;28;20240;-91
2022/06/13 00:31:18;;;;;;;3.17;2.67;;;19.40;99.90;;;;;;5051984;28;20206;-92
2022/06/13 00:33:46;;;;;;;2.53;2.17;;;19.40;99.90;;;;;;5052301;28;20248;-92
2022/06/13 00:36:17;;;;;;;2.28;2.08;;;19.40;99.90;;;;;;5051725;28;20288;-92
2022/06/13 00:38:46;;;;;;;2.10;2.00;;;19.40;99.90;;;;;;5052119;28;20237;-92
2022/06/13 00:41:18;;;;;;;15.40;2.75;;;19.40;99.90;;;;;;5051890;28;20249;-93
2022/06/13 00:43:48;;;;;;;2.60;2.25;;;19.50;99.90;;;;;;5052120;28;20201;-92
2022/06/13 00:46:20;;;;;;;1.85;1.75;;;19.50;99.90;;;;;;5051817;28;20221;-92
2022/06/13 00:48:50;;;;;;;2.78;2.13;;;19.40;99.90;;;;;;5051883;28;20233;-92
2022/06/13 00:51:20;;;;;;;2.60;2.35;;;19.40;99.90;;;;;;5052023;28;20203;-93
2022/06/13 00:53:50;;;;;;;2.70;2.50;;;19.40;99.90;;;;;;5052063;28;20210;-92
2022/06/13 00:56:21;;;;;;;3.70;2.85;;;19.30;99.90;;;;;;5052083;28;20202;-92
2022/06/13 00:58:53;;;;;;;2.95;2.47;;;19.30;99.90;;;;;;5051879;28;20245;-93
2022/06/13 01:01:23;;;;;;;2.35;2.25;;;19.20;99.90;;;;;;5053883;28;20264;-92
2022/06/13 01:03:52;;;;;;;2.97;2.72;;;19.10;99.90;;;;;;5055457;28;20289;-92
2022/06/13 01:06:22;;;;;;;3.47;2.42;;;19.10;99.90;;;;;;5055261;28;20263;-92
2022/06/13 01:08:51;;;;;;;2.65;2.45;;;19.00;99.90;;;;;;5055411;28;20433;-92
2022/06/13 01:11:22;;;;;;;5.38;2.92;;;18.90;99.90;;;;;;5055122;28;20270;-93
2022/06/13 01:14:24;;;;;;;4.70;2.15;;;18.90;99.90;;;;;;5055662;28;20213;-91
2022/06/13 01:17:20;;;;;;;7.28;2.88;;;18.80;99.90;;;;;;5055317;28;20201;-92
2022/06/13 01:20:19;;;;;;;2.72;2.53;;;18.70;99.90;;;;;;5054855;28;20313;-91
2022/06/13 01:23:21;;;;;;;4.22;2.22;;;18.70;99.90;;;;;;5029371;28;20205;-92
2022/06/13 01:26:22;;;;;;;2.47;2.35;;;18.60;99.90;;;;;;5055209;28;20285;-91
2022/06/13 01:29:34;;;;;;;2.50;2.30;;;18.40;99.90;;;;;;5054867;28;20225;-92
2022/06/13 01:32:17;;;;;;;2.70;2.45;;;18.20;99.90;;;;;;5055209;28;20273;-92
2022/06/13 01:34:56;;;;;;;2.95;2.75;;;18.10;99.90;;;;;;5054960;28;20292;-92
2022/06/13 01:37:38;;;;;;;2.72;2.58;;;18.00;99.90;;;;;;5055142;28;20233;-92
2022/06/13 01:40:14;;;;;;;2.70;2.42;;;17.90;99.90;;;;;;5054807;28;20248;-91
2022/06/13 01:42:53;;;;;;;3.13;2.92;;;17.90;99.90;;;;;;5054679;28;20213;-92
2022/06/13 01:45:30;;;;;;;2.95;2.75;;;17.90;99.90;;;;;;5054636;28;20225;-92
2022/06/13 01:48:05;;;;;;;2.95;2.75;;;17.80;99.90;;;;;;5055269;28;20228;-92
2022/06/13 01:50:43;;;;;;;3.08;2.78;;;17.80;99.90;;;;;;5059993;28;20205;-92
2022/06/13 01:53:20;;;;;;;2.95;2.50;;;17.80;99.90;;;;;;5054790;28;20229;-92
2022/06/13 01:55:55;;;;;;;2.55;2.45;;;17.70;99.90;;;;;;5054913;28;20197;-92
2022/06/13 01:58:31;;;;;;;3.15;2.95;;;17.60;99.90;;;;;;5054562;28;20316;-92
2022/06/13 02:01:05;;;;;;;3.20;3.00;;;17.50;99.90;;;;;;5054171;28;20269;-92
2022/06/13 02:03:39;;;;;;;3.25;3.05;;;17.50;99.90;;;;;;5054345;28;20213;-92
2022/06/13 02:06:15;;;;;;;4.97;3.13;;;17.40;99.90;;;;;;5054353;28;20221;-92
2022/06/13 02:08:50;;;;;;;3.40;3.10;;;17.40;99.90;;;;;;5054291;28;20241;-92
2022/06/13 02:11:23;;;;;;;3.33;3.03;;;17.40;99.90;;;;;;5059961;28;20224;-92
2022/06/13 02:13:54;;;;;;;3.95;3.15;;;17.50;99.90;;;;;;5054082;28;20244;-92
2022/06/13 02:16:27;;;;;;;3.83;3.25;;;17.50;99.90;;;;;;5054304;28;20202;-93
2022/06/13 02:19:01;;;;;;;3.05;2.85;;;17.50;99.90;;;;;;5054033;28;20221;-93
2022/06/13 02:21:37;;;;;;;3.33;3.00;;;17.50;99.90;;;;;;5054070;28;20202;-92
2022/06/13 02:24:11;;;;;;;3.58;2.88;;;17.50;99.90;;;;;;5054598;28;20202;-91
2022/06/13 02:26:41;;;;;;;2.58;2.38;;;17.40;99.90;;;;;;5053774;28;20352;-91
2022/06/13 02:29:15;;;;;;;3.05;2.83;;;17.40;99.90;;;;;;5053851;28;20248;-91
2022/06/13 02:31:49;;;;;;;4.75;2.30;;;17.40;99.90;;;;;;5053385;28;20232;-91
2022/06/13 02:34:24;;;;;;;3.63;3.33;;;17.40;99.90;;;;;;5053213;28;20201;-91
2022/06/13 02:36:57;;;;;;;3.08;2.88;;;17.40;99.90;;;;;;5053747;28;20225;-91
2022/06/13 02:39:29;;;;;;;2.85;2.65;;;17.40;99.90;;;;;;5053709;28;20249;-91
2022/06/13 02:42:01;;;;;;;4.65;2.75;;;17.40;99.90;;;;;;5053480;28;20251;-91
2022/06/13 02:44:34;;;;;;;2.83;2.53;;;17.40;99.90;;;;;;5053455;28;20202;-91
2022/06/13 02:47:16;;;;;;;3.28;3.08;;;17.40;99.90;;;;;;5053743;28;20289;-92
2022/06/13 02:49:51;;;;;;;9.00;2.78;;;17.40;99.90;;;;;;5053367;28;20225;-92
2022/06/13 02:52:25;;;;;;;2.38;2.28;;;17.40;99.90;;;;;;5053310;28;20228;-91
2022/06/13 02:54:56;;;;;;;2.80;2.60;;;17.40;99.90;;;;;;5053217;28;20289;-91
2022/06/13 02:57:38;;;;;;;3.83;3.17;;;17.40;99.90;;;;;;5053626;28;20209;-91
2022/06/13 03:00:30;;;;;;;2.63;2.42;;;17.40;99.90;;;;;;5053684;28;20289;-91
2022/06/13 03:03:12;;;;;;;3.65;3.22;;;17.40;99.90;;;;;;5053108;28;20225;-92
2022/06/13 03:06:03;;;;;;;2.97;2.72;;;17.30;99.90;;;;;;5053240;28;20229;-92
2022/06/13 03:08:58;;;;;;;2.90;2.67;;;17.30;99.90;;;;;;5053218;28;20229;-92
2022/06/13 03:11:45;;;;;;;3.90;3.10;;;17.30;99.90;;;;;;5052895;28;20297;-92
2022/06/13 03:14:25;;;;;;;2.90;2.53;;;17.30;99.90;;;;;;5053548;28;20209;-91
2022/06/13 03:16:59;;;;;;;2.90;2.70;;;17.30;99.90;;;;;;5053271;28;20225;-92
2022/06/13 03:19:34;;;;;;;9.80;3.10;;;17.30;99.90;;;;;;5052883;28;20226;-91
2022/06/13 03:22:11;;;;;;;3.17;2.88;;;17.30;99.90;;;;;;5052670;28;20212;-91
2022/06/13 03:24:47;;;;;;;2.97;2.78;;;17.30;99.90;;;;;;5052921;28;20240;-92
2022/06/13 03:27:22;;;;;;;5.32;3.85;;;17.30;99.90;;;;;;5052895;28;20244;-91
2022/06/13 03:29:55;;;;;;;4.63;3.33;;;17.30;99.90;;;;;;5052671;28;20233;-91
2022/06/13 03:32:28;;;;;;;3.50;3.20;;;17.40;99.90;;;;;;5052539;28;20255;-91
2022/06/13 03:35:01;;;;;;;3.95;3.53;;;17.30;99.90;;;;;;5052891;28;20289;-92
2022/06/13 03:37:37;;;;;;;6.07;3.05;;;17.40;99.90;;;;;;5053108;28;20301;-91
2022/06/13 03:40:10;;;;;;;5.20;2.67;;;17.40;99.90;;;;;;5052781;28;20236;-92
2022/06/13 03:42:44;;;;;;;4.97;3.78;;;17.40;99.90;;;;;;5053220;28;20221;-92
2022/06/13 03:45:23;;;;;;;2.58;2.47;;;17.40;99.90;;;;;;5052650;28;20208;-92
2022/06/13 03:47:56;;;;;;;3.53;3.08;;;17.50;99.90;;;;;;5052233;28;20225;-91
2022/06/13 03:50:29;;;;;;;3.38;3.03;;;17.50;99.90;;;;;;5052126;28;20248;-91
2022/06/13 03:53:05;;;;;;;3.67;3.28;;;17.50;99.90;;;;;;5052988;28;20233;-92
2022/06/13 03:55:39;;;;;;;4.05;2.80;;;17.60;99.90;;;;;;5052605;28;20209;-90
2022/06/13 03:58:13;;;;;;;3.20;3.00;;;17.60;99.90;;;;;;5052600;28;20229;-91
2022/06/13 04:00:46;;;;;;;5.53;3.15;;;17.70;99.90;;;;;;5052419;28;20213;-91
2022/06/13 04:03:16;;;;;;;5.60;3.50;;;17.70;99.90;;;;;;5052512;28;20216;-91
2022/06/13 04:05:56;;;;;;;4.10;3.20;;;17.80;99.90;;;;;;5052991;28;20205;-91
2022/06/13 04:08:28;;;;;;;3.40;3.10;;;17.90;99.90;;;;;;5052770;28;20221;-91
2022/06/13 04:11:09;;;;;;;3.78;2.90;;;17.90;99.90;;;;;;5052342;28;20209;-91
2022/06/13 04:13:52;;;;;;;3.75;3.15;;;18.00;99.90;;;;;;5052771;28;20301;-91
2022/06/13 04:16:44;;;;;;;3.17;2.90;;;18.00;99.90;;;;;;5052658;28;20229;-92
2022/06/13 04:19:35;;;;;;;3.15;2.85;;;18.00;99.90;;;;;;5052160;28;20235;-91
2022/06/13 04:22:12;;;;;;;2.70;2.50;;;18.00;99.90;;;;;;5052378;28;20209;-91
2022/06/13 04:24:55;;;;;;;3.22;2.95;;;18.00;99.90;;;;;;5052326;28;20205;-91
2022/06/13 04:27:28;;;;;;;3.33;3.13;;;18.00;99.90;;;;;;5052156;28;20224;-91
2022/06/13 04:30:02;;;;;;;4.28;3.70;;;18.00;99.90;;;;;;5052329;28;20249;-92
2022/06/13 04:32:39;;;;;;;4.97;3.40;;;18.00;99.90;;;;;;5052506;28;20209;-91
2022/06/13 04:35:11;;;;;;;4.03;3.05;;;18.10;99.90;;;;;;5052816;28;20206;-91
2022/06/13 04:37:40;;;;;;;5.78;3.47;;;18.10;99.90;;;;;;5056143;28;20232;-91
2022/06/13 04:40:18;;;;;;;4.32;3.45;;;18.10;99.90;;;;;;5055618;28;20229;-92
2022/06/13 04:42:49;;;;;;;3.33;3.13;;;18.20;99.90;;;;;;5056385;28;20207;-91
2022/06/13 04:45:24;;;;;;;3.63;3.22;;;18.30;99.90;;;;;;5055685;28;20240;-91
2022/06/13 04:47:58;;;;;;;7.05;3.45;;;18.50;99.90;;;;;;5055761;28;20274;-91
2022/06/13 04:50:34;;;;;;;3.38;3.13;;;18.60;99.90;;;;;;5055769;28;20202;-91
2022/06/13 04:53:05;;;;;;;2.72;2.55;;;18.70;99.90;;;;;;5056034;28;20289;-92
2022/06/13 04:55:41;;;;;;;3.03;2.80;;;18.80;99.90;;;;;;5055951;28;20217;-92
2022/06/13 04:58:18;;;;;;;3.65;3.35;;;18.90;99.90;;;;;;5055783;28;20320;-92
2022/06/13 05:00:48;;;;;;;3.78;3.47;;;18.90;99.90;;;;;;5055546;28;20282;-91
2022/06/13 05:03:22;;;;;;;9.90;4.07;;;19.10;99.90;;;;;;5055579;28;20240;-92
2022/06/13 05:05:54;;;;;;;4.60;4.00;;;19.20;99.90;;;;;;5055526;28;20277;-91
2022/06/13 05:08:25;;;;;;;4.93;4.38;;;19.30;99.90;;;;;;5055431;28;20261;-92
2022/06/13 05:10:59;;;;;;;4.70;4.28;;;19.40;99.90;;;;;;5055152;28;20232;-91
2022/06/13 05:13:28;;;;;;;5.30;4.90;;;19.50;99.90;;;;;;5055811;28;20332;-91
2022/06/13 05:16:03;;;;;;;4.85;4.47;;;19.70;99.90;;;;;;5055378;28;20313;-91
2022/06/13 05:19:09;;;;;;;5.38;4.97;;;19.70;99.90;;;;;;5055301;28;20229;-92
2022/06/13 05:21:51;;;;;;;3.53;3.22;;;19.70;99.90;;;;;;5055562;28;20256;-91
2022/06/13 05:24:34;;;;;;;2.03;1.92;;;19.30;99.90;;;;;;5055232;28;20201;-91
2022/06/13 05:27:08;;;;;;;3.30;2.30;;;19.00;99.90;;;;;;5055009;28;20289;-91
2022/06/13 05:29:37;;;;;;;2.83;2.60;;;18.90;99.90;;;;;;5055629;28;20229;-92
2022/06/13 05:32:07;;;;;;;2.97;2.70;;;18.90;99.90;;;;;;5054953;28;20270;-91
2022/06/13 05:34:39;;;;;;;2.75;2.42;;;19.00;99.90;;;;;;5054639;28;20255;-92
2022/06/13 05:37:08;;;;;;;2.95;2.63;;;19.00;99.90;;;;;;5054575;28;20198;-91
2022/06/13 05:39:37;;;;;;;3.28;2.78;;;19.00;99.90;;;;;;5054868;28;20313;-92
2022/06/13 05:42:08;;;;;;;3.33;3.03;;;19.10;99.90;;;;;;5054561;28;20205;-91
2022/06/13 05:44:36;;;;;;;8.85;2.58;;;19.10;99.90;;;;;;5054919;28;20329;-91
2022/06/13 05:47:05;;;;;;;6.97;2.88;;;19.10;99.90;;;;;;5053424;28;20390;-91
2022/06/13 05:49:33;;;;;;;3.60;2.63;;;19.20;99.90;;;;;;5054635;28;20280;-91
2022/06/13 05:52:02;;;;;;;2.28;2.15;;;19.30;99.90;;;;;;5054142;28;20210;-91
2022/06/13 05:54:30;;;;;;;2.45;2.00;;;19.30;99.90;;;;;;5053830;28;20292;-86
2022/06/13 05:56:58;;;;;;;2.50;2.30;;;19.50;99.90;;;;;;5052846;28;20214;-87
2022/06/13 05:59:28;;;;;;;3.70;2.72;;;19.70;99.90;;;;;;5053116;28;20237;-87
2022/06/13 06:01:56;;;;;;;2.70;2.50;;;19.90;99.90;;;;;;5054144;28;20240;-87
2022/06/13 06:04:25;;;;;;;3.03;2.72;;;20.20;99.90;;;;;;5053963;28;20206;-86
2022/06/13 06:06:54;;;;;;;2.47;2.28;;;20.50;99.90;;;;;;5053515;28;20224;-86
2022/06/13 06:09:22;;;;;;;2.78;2.35;;;20.70;99.90;;;;;;5053467;28;20321;-87
2022/06/13 06:11:50;;;;;;;2.42;2.33;;;20.80;99.90;;;;;;5053692;28;20240;-87
2022/06/13 06:14:18;;;;;;;2.40;2.30;;;20.90;99.90;;;;;;5054052;28;20228;-87
2022/06/13 06:16:48;;;;;;;2.50;2.30;;;21.00;99.90;;;;;;5053660;28;20236;-87
2022/06/13 06:19:17;;;;;;;1.90;1.80;;;21.00;99.90;;;;;;5053609;28;20214;-87
2022/06/13 06:21:45;;;;;;;2.05;1.95;;;21.00;99.90;;;;;;5053204;28;20222;-87
2022/06/13 06:24:13;;;;;;;2.83;1.75;;;21.00;99.90;;;;;;5053344;28;20206;-86
2022/06/13 06:26:42;;;;;;;2.83;2.63;;;20.90;99.90;;;;;;5053541;28;20201;-86
2022/06/13 06:29:11;;;;;;;2.15;2.00;;;20.80;99.90;;;;;;5052674;28;20221;-86
2022/06/13 06:31:39;;;;;;;2.63;2.42;;;20.80;99.90;;;;;;5051021;28;20218;-85
2022/06/13 06:34:09;;;;;;;2.80;2.60;;;20.80;99.90;;;;;;5053082;28;20247;-87
2022/06/13 06:36:37;;;;;;;3.15;1.80;;;20.80;99.90;;;;;;5053835;28;20274;-87
2022/06/13 06:39:06;;;;;;;2.33;2.13;;;20.70;99.90;;;;;;5053048;28;20222;-87
2022/06/13 06:41:34;;;;;;;2.40;2.28;;;20.70;99.90;;;;;;5053006;28;20210;-87
2022/06/13 06:44:02;;;;;;;3.22;2.85;;;20.30;99.90;;;;;;5053064;28;20292;-87
2022/06/13 06:46:31;;;;;;;4.60;2.75;;;20.00;99.90;;;;;;5053559;28;20205;-87
2022/06/13 06:48:59;;;;;;;2.97;2.40;;;19.90;99.90;;;;;;5053099;28;20279;-87
2022/06/13 06:51:29;;;;;;;2.90;2.70;;;19.90;99.90;;;;;;5053347;28;20267;-86
2022/06/13 07:02:15;;;;;;;3.15;2.95;;;19.80;99.90;;;;;;5052400;28;20209;-87
2022/06/13 07:04:43;;;;;;;4.70;2.70;;;19.90;99.90;;;;;;5053180;28;20276;-86
2022/06/13 07:07:13;;;;;;;2.67;2.47;;;19.90;99.90;;;;;;5052695;28;20276;-86
2022/06/13 07:09:42;;;;;;;2.42;2.22;;;20.00;99.90;;;;;;5052084;28;20218;-87
2022/06/13 07:12:14;;;;;;;2.65;2.45;;;19.90;99.90;;;;;;5052627;28;20209;-87
2022/06/13 07:14:44;;;;;;;2.58;2.38;;;20.00;99.90;;;;;;5052277;28;20190;-88
2022/06/13 07:17:13;;;;;;;3.42;3.03;;;20.10;99.90;;;;;;5053109;28;20237;-88
2022/06/13 07:19:44;;;;;;;2.63;2.42;;;20.10;99.90;;;;;;5052825;28;20222;-88
2022/06/13 07:22:17;;;;;;;3.42;3.08;;;20.20;99.90;;;;;;5052052;28;20280;-88
2022/06/13 07:24:46;;;;;;;2.53;2.33;;;20.20;99.90;;;;;;5051999;28;20258;-88
2022/06/13 07:27:15;;;;;;;3.17;2.97;;;20.20;99.90;;;;;;5051881;28;20202;-87
2022/06/13 07:29:43;;;;;;;4.90;2.92;;;20.30;99.90;;;;;;5052453;28;20249;-87
2022/06/13 07:32:16;;;;;;;3.90;3.60;;;20.30;99.90;;;;;;5052701;28;20305;-84
2022/06/13 07:34:47;;;;;;;3.33;3.03;;;20.40;99.90;;;;;;5052428;28;20270;-81
2022/06/13 07:40:04;;;;;;;2.70;2.50;;;20.70;99.90;;;;;;5051695;28;20260;-81
2022/06/13 07:42:36;;;;;;;3.10;2.80;;;20.50;99.90;;;;;;5052480;28;20205;-81
2022/06/13 07:45:06;;;;;;;2.75;2.55;;;20.70;99.90;;;;;;5052522;28;20417;-81
2022/06/13 07:47:55;;;;;;;2.83;2.55;;;20.80;99.90;;;;;;5052307;28;20197;-81
2022/06/13 07:50:25;;;;;;;2.60;2.42;;;20.90;99.90;;;;;;5051788;28;20289;-81
2022/06/13 07:52:57;;;;;;;2.80;2.47;;;21.00;99.90;;;;;;5051882;28;20201;-81
2022/06/13 07:55:28;;;;;;;3.70;2.55;;;21.00;99.90;;;;;;5052400;28;20204;-81
2022/06/13 07:57:57;;;;;;;2.53;2.20;;;21.00;99.90;;;;;;5052277;28;20285;-80
2022/06/13 08:00:34;;;;;;;6.72;2.78;;;21.00;99.90;;;;;;5051245;28;20202;-78
2022/06/13 08:03:03;;;;;;;2.65;2.45;;;21.10;99.90;;;;;;5052188;28;20292;-81
2022/06/13 08:05:32;;;;;;;2.30;2.20;;;21.00;99.90;;;;;;5052147;28;20209;-81
2022/06/13 08:08:02;;;;;;;5.63;2.60;;;21.20;99.90;;;;;;5052164;28;20217;-82
2022/06/13 08:10:30;;;;;;;2.50;2.30;;;21.50;99.90;;;;;;5052552;28;20286;-81
2022/06/13 08:12:59;;;;;;;3.38;2.90;;;21.80;99.90;;;;;;5056373;28;20283;-81
2022/06/13 08:15:27;;;;;;;6.95;2.60;;;21.70;99.90;;;;;;5054135;28;20202;-86
2022/06/13 08:17:56;;;;;;;3.10;2.55;;;21.70;99.90;;;;;;5040534;28;20293;-85
2022/06/13 08:20:24;;;;;;;2.28;2.17;;;21.80;99.90;;;;;;5056250;28;20209;-86
2022/06/13 08:22:54;;;;;;;2.78;2.33;;;21.70;99.90;;;;;;5055939;28;20281;-85
2022/06/13 08:25:30;;;;;;;14.45;2.60;;;21.90;99.90;;;;;;5055790;28;20227;-85
2022/06/13 08:28:00;;;;;;;2.60;2.40;;;23.10;99.90;;;;;;5055822;28;20221;-86
2022/06/13 08:30:39;;;;;;;2.50;2.28;;;24.10;99.90;;;;;;5055516;28;20308;-86
2022/06/13 08:33:08;;;;;;;2.63;2.42;;;25.10;99.90;;;;;;5054529;28;20206;-84
2022/06/13 08:35:37;;;;;;;3.20;2.90;;;25.50;99.90;;;;;;5055523;28;20233;-85
2022/06/13 08:38:06;;;;;;;2.70;2.50;;;26.00;99.90;;;;;;5055720;28;20265;-85
2022/06/13 08:40:44;;;;;;;2.47;2.28;;;26.40;99.90;;;;;;5055613;28;20202;-86
2022/06/13 08:43:43;;;;;;;5.13;1.95;;;27.50;99.90;;;;;;5054972;28;20201;-85
2022/06/13 08:46:20;;;;;;;3.15;2.60;;;28.40;99.90;;;;;;5055392;28;20206;-86
2022/06/13 08:48:52;;;;;;;3.22;2.55;;;28.20;99.90;;;;;;5035809;28;20316;-86
2022/06/13 08:51:29;;;;;;;2.63;2.42;;;28.20;99.90;;;;;;5036154;28;20233;-86
2022/06/13 08:53:59;;;;;;;2.63;2.42;;;28.00;99.90;;;;;;5055755;28;20194;-84
2022/06/13 09:13:34;;;;;;;2.83;2.25;;;29.30;99.90;;;;;;5053144;28;20214;-84
2022/06/13 09:16:08;;;;;;;2.78;2.13;;;29.80;99.90;;;;;;5054603;28;20288;-84
2022/06/13 09:18:45;;;;;;;2.35;2.20;;;29.10;99.60;;;;;;5041235;28;20304;-81
2022/06/13 09:21:22;;;;;;;2.10;2.00;;;29.00;99.90;;;;;;5037092;28;20210;-87
2022/06/13 09:24:01;;;;;;;2.28;2.17;;;28.30;99.90;;;;;;5054821;28;20228;-88
2022/06/13 09:26:37;;;;;;;2.17;2.08;;;28.20;99.90;;;;;;5054891;28;20214;-88
2022/06/13 09:29:14;;;;;;;4.03;2.03;;;27.60;99.90;;;;;;5055183;28;20228;-87
2022/06/13 09:31:45;;;;;;;2.17;1.98;;;27.50;99.90;;;;;;5054647;28;20206;-88
2022/06/13 09:34:17;;;;;;;2.35;2.25;;;28.00;99.90;;;;;;5054862;28;20206;-87
2022/06/13 09:36:53;;;;;;;2.35;2.08;;;28.30;99.90;;;;;;5054963;28;20292;-87
2022/06/13 09:39:22;;;;;;;2.10;2.00;;;28.70;99.90;;;;;;5054642;28;20226;-88
2022/06/13 09:42:02;;;;;;;2.00;1.90;;;29.00;99.40;;;;;;5054532;28;20230;-92
2022/06/13 09:44:52;;;;;;;2.33;2.22;;;28.80;99.10;;;;;;5054490;28;20230;-92
2022/06/13 09:47:36;;;;;;;2.97;1.90;;;28.50;98.90;;;;;;5054780;28;20225;-92
2022/06/13 09:50:13;;;;;;;1.90;1.80;;;29.10;99.60;;;;;;5054597;28;20312;-93
2022/06/13 09:52:52;;;;;;;2.33;1.88;;;29.40;98.70;;;;;;5053938;28;20225;-93
2022/06/13 09:55:26;;;;;;;2.03;1.90;;;29.90;97.10;;;;;;5053869;28;20198;-92
2022/06/13 09:58:06;;;;;;;1.73;1.63;;;30.00;97.10;;;;;;5054293;28;20225;-93
2022/06/13 10:00:42;;;;;;;2.30;1.85;;;30.40;96.00;;;;;;5053700;28;20202;-92
2022/06/13 10:03:22;;;;;;;1.67;1.58;;;30.30;95.50;;;;;;5054482;28;20263;-92
2022/06/13 10:06:01;;;;;;;1.73;1.55;;;30.10;94.90;;;;;;5053890;28;20284;-93
2022/06/13 10:08:50;;;;;;;1.85;1.75;;;29.50;95.70;;;;;;5053977;28;20307;-93
2022/06/13 10:11:32;;;;;;;1.67;1.58;;;28.80;96.30;;;;;;5053637;28;20233;-93
2022/06/13 10:14:23;;;;;;;1.60;1.50;;;28.90;96.80;;;;;;5059747;28;20224;-92
2022/06/13 10:17:07;;;;;;;1.42;1.33;;;29.00;96.10;;;;;;5057009;28;20296;-92
2022/06/13 10:19:44;;;;;;;1.42;1.33;;;29.10;96.20;;;;;;5053945;28;20218;-93
2022/06/13 10:22:15;;;;;;;1.77;1.67;;;29.30;95.20;;;;;;5052949;28;20291;-91
2022/06/13 10:25:01;;;;;;;1.52;1.42;;;29.10;95.30;;;;;;5063296;28;20244;-93
2022/06/13 10:27:42;;;;;;;1.40;1.35;;;29.20;94.80;;;;;;5054889;28;20202;-91
2022/06/13 10:30:29;;;;;;;1.63;1.52;;;29.20;95.10;;;;;;5055784;28;20241;-93
2022/06/13 10:33:21;;;;;;;1.55;1.45;;;29.20;94.60;;;;;;5053414;28;20206;-92
2022/06/13 10:35:56;;;;;;;4.07;1.83;;;28.80;94.80;;;;;;5055097;28;20201;-92
2022/06/13 10:38:48;;;;;;;3.28;1.80;;;28.70;95.20;;;;;;5053347;28;20221;-92
2022/06/13 10:41:17;;;;;;;1.25;1.25;;;28.90;95.30;;;;;;5053189;28;20193;-93
2022/06/13 10:43:46;;;;;;;2.55;1.75;;;28.90;94.90;;;;;;5053331;28;20256;-92
2022/06/13 10:46:14;;;;;;;2.00;1.80;;;28.90;95.40;;;;;;5053677;28;20208;-93
2022/06/13 10:48:50;;;;;;;2.67;1.63;;;28.90;95.30;;;;;;5053145;28;20305;-93
2022/06/13 10:51:18;;;;;;;2.55;1.40;;;28.90;95.00;;;;;;5056436;28;20217;-92
2022/06/13 10:53:53;;;;;;;2.28;1.63;;;28.70;95.20;;;;;;5053110;28;20229;-92
2022/06/13 10:56:26;;;;;;;1.63;1.52;;;28.60;94.90;;;;;;5053283;28;20205;-92
2022/06/13 10:58:58;;;;;;;2.17;1.50;;;28.10;95.30;;;;;;5053023;28;20279;-94
2022/06/13 11:01:29;;;;;;;1.45;1.35;;;27.70;96.00;;;;;;5052778;28;20198;-93
2022/06/13 11:04:06;;;;;;;1.60;1.50;;;28.10;94.70;;;;;;5052804;28;20198;-93
2022/06/13 11:06:44;;;;;;;1.65;1.55;;;28.30;94.20;;;;;;5053180;28;20260;-94
2022/06/13 11:09:27;;;;;;;1.50;1.40;;;28.60;93.70;;;;;;5052432;28;20222;-93
2022/06/13 11:11:58;;;;;;;1.40;1.30;;;28.60;93.90;;;;;;5052029;28;20225;-92
2022/06/13 11:23:22;;;;;;;1.60;1.50;;;29.10;93.50;;;;;;5052899;28;20267;-94
2022/06/13 11:26:02;;;;;;;1.50;1.40;;;29.60;93.10;;;;;;5052778;28;20202;-93
2022/06/13 11:28:39;;;;;;;1.50;1.45;;;30.10;93.60;;;;;;5052644;28;20222;-94
2022/06/13 11:31:26;;;;;;;2.53;1.58;;;30.60;92.40;;;;;;5051804;28;20308;-94
2022/06/13 11:34:58;;;;;;;;;;;;;;;;;;;;;
2022/06/13 11:37:32;;;;;;;1.65;1.40;;;30.00;92.30;;;;;;4945529;28;20202;-94
2022/06/13 11:40:17;;;;;;;1.60;1.50;;;30.00;92.10;;;;;;5032675;28;20230;-93
2022/06/13 11:42:53;;;;;;;1.45;1.35;;;30.00;92.30;;;;;;5039499;28;20218;-93
2022/06/13 11:45:35;;;;;;;1.23;1.23;;;30.10;91.00;;;;;;5051201;28;20193;-94
2022/06/13 11:48:04;;;;;;;1.38;1.30;;;30.00;91.20;;;;;;5049194;28;20251;-92
2022/06/13 11:50:41;;;;;;;1.25;1.25;;;30.20;91.30;;;;;;5052026;28;20222;-93
2022/06/13 11:56:01;;;;;;;2.00;1.42;;;30.70;93.40;;;;;;5051602;28;20267;-93
2022/06/13 11:58:33;;;;;;;1.55;1.45;;;31.20;91.00;;;;;;5052155;28;20313;-94
2022/06/13 12:01:04;;;;;;;1.35;1.23;;;31.00;90.20;;;;;;5052974;28;20194;-95
2022/06/13 12:03:36;;;;;;;1.60;1.50;;;30.40;90.10;;;;;;5052244;28;20205;-94
2022/06/13 12:06:10;;;;;;;1.50;1.40;;;30.60;90.10;;;;;;5063656;28;20282;-94
2022/06/13 12:08:41;;;;;;;1.25;1.25;;;30.10;90.80;;;;;;5052059;28;20248;-95
2022/06/13 12:11:24;;;;;;;1.50;1.40;;;29.80;91.90;;;;;;5051911;28;20249;-94
2022/06/13 12:14:10;;;;;;;1.98;1.60;;;29.50;91.40;;;;;;5052225;28;20292;-95
2022/06/13 12:16:46;;;;;;;1.50;1.40;;;29.20;92.30;;;;;;5049251;28;20237;-95
2022/06/13 12:19:36;;;;;;;2.22;1.95;;;29.50;92.00;;;;;;5050729;28;20252;-95
2022/06/13 12:22:23;;;;;;;2.45;1.50;;;29.60;91.60;;;;;;5045953;28;20274;-95
2022/06/13 12:25:10;;;;;;;1.58;1.48;;;28.90;92.80;;;;;;5032664;28;20214;-95
2022/06/13 12:27:50;;;;;;;1.65;1.55;;;29.20;92.20;;;;;;5050077;28;20201;-94
2022/06/13 12:30:38;;;;;;;1.65;1.55;;;29.10;92.20;;;;;;5052254;28;20209;-95
2022/06/13 12:33:21;;;;;;;1.50;1.40;;;28.60;92.10;;;;;;5053301;28;20194;-95
2022/06/13 12:36:06;;;;;;;9.07;1.77;;;29.10;92.20;;;;;;5033651;28;20198;-95
2022/06/13 12:38:55;;;;;;;1.38;1.35;;;29.20;92.00;;;;;;5040230;28;20245;-94
2022/06/13 12:41:40;;;;;;;1.85;1.48;;;29.10;92.30;;;;;;5054159;28;20230;-94
2022/06/13 12:44:29;;;;;;;1.58;1.48;;;28.80;92.10;;;;;;5051991;28;20194;-94
2022/06/13 12:47:14;;;;;;;1.60;1.50;;;28.10;93.10;;;;;;5051620;28;20202;-77
2022/06/13 12:54:02;;;;;;;2.40;1.75;;;26.60;99.00;;;;;;5052088;28;20196;-94
2022/06/13 12:56:38;;;;;;;2.75;1.90;;;25.30;99.90;;;;;;5025372;28;20268;-94
2022/06/13 13:06:06;;;;;;;3.10;1.60;;;23.30;99.90;;;;;;5029085;28;20205;-90
2022/06/13 13:08:53;;;;;;;1.58;1.48;;;23.50;99.90;;;;;;5050816;28;20224;-87
2022/06/13 13:11:47;;;;;;;1.75;1.65;;;23.90;99.90;;;;;;5048123;28;20249;-81
2022/06/13 13:14:25;;;;;;;1.35;1.33;;;24.30;99.90;;;;;;5034913;28;20274;-86
2022/06/13 13:16:59;;;;;;;1.65;1.55;;;24.90;99.90;;;;;;5045508;28;20264;-86
2022/06/13 13:19:37;;;;;;;1.90;1.80;;;25.20;99.90;;;;;;5054663;28;20309;-86
2022/06/13 13:22:13;;;;;;;1.45;1.35;;;25.50;99.90;;;;;;5036524;28;20229;-85
2022/06/13 13:24:53;;;;;;;1.50;1.40;;;25.70;99.90;;;;;;5034561;28;20226;-85
2022/06/13 13:27:27;;;;;;;2.03;1.50;;;25.70;99.90;;;;;;5033190;28;20222;-85
2022/06/13 13:30:05;;;;;;;1.60;1.50;;;25.80;99.90;;;;;;5032905;28;20317;-85
2022/06/13 13:32:42;;;;;;;1.50;1.40;;;25.80;99.90;;;;;;5039565;28;20217;-85
2022/06/13 13:35:22;;;;;;;1.88;1.75;;;25.90;99.90;;;;;;5054639;28;20221;-84
2022/06/13 13:37:55;;;;;;;1.58;1.48;;;26.20;99.90;;;;;;5043337;28;20282;-84
2022/06/13 13:40:34;;;;;;;1.70;1.60;;;26.60;99.90;;;;;;5050049;28;20280;-84
2022/06/13 13:43:11;;;;;;;1.90;1.80;;;26.70;99.90;;;;;;5051187;28;20229;-84
2022/06/13 13:45:46;;;;;;;1.75;1.60;;;26.90;99.90;;;;;;5034905;28;20237;-84
2022/06/13 13:48:22;;;;;;;2.47;1.77;;;26.80;99.90;;;;;;5034726;28;20233;-84
2022/06/13 13:50:56;;;;;;;2.33;1.65;;;26.90;99.90;;;;;;5034527;28;20237;-84
2022/06/13 13:53:31;;;;;;;2.33;1.80;;;27.00;99.90;;;;;;5034514;28;20382;-84
2022/06/13 13:56:06;;;;;;;2.40;2.03;;;27.00;99.90;;;;;;5034485;28;20206;-84
2022/06/13 13:58:37;;;;;;;1.63;1.52;;;26.90;99.90;;;;;;5034489;28;20238;-83
2022/06/13 14:01:17;;;;;;;3.10;1.67;;;27.10;99.90;;;;;;5034083;28;20202;-85
2022/06/13 14:04:03;;;;;;;6.53;1.90;;;27.00;99.90;;;;;;5047496;28;20210;-85
2022/06/13 14:06:40;;;;;;;1.80;1.70;;;26.50;99.90;;;;;;5053840;28;20232;-85
2022/06/13 14:09:19;;;;;;;1.67;1.58;;;26.10;99.90;;;;;;5033984;28;20219;-84
2022/06/13 14:12:09;;;;;;;1.70;1.60;;;25.70;99.90;;;;;;5032058;28;20222;-83
2022/06/13 14:15:05;;;;;;;1.95;1.75;;;25.60;99.90;;;;;;5034350;28;20229;-84
2022/06/13 14:17:43;;;;;;;1.70;1.60;;;25.70;99.90;;;;;;5034500;28;20206;-84
2022/06/13 14:20:23;;;;;;;1.42;1.35;;;25.70;99.90;;;;;;5033974;28;20268;-84
2022/06/13 14:22:56;;;;;;;1.52;1.42;;;25.70;99.90;;;;;;5045719;28;20194;-84